createdAt,value
2019-02-26T00:00:44.885Z,14.15
2019-02-26T00:03:12.742Z,11.05
2019-02-26T00:05:41.545Z,19.02
2019-02-26T00:08:10.402Z,14.03
2019-02-26T00:10:39.480Z,14.93
2019-02-26T00:13:08.275Z,13.75
2019-02-26T00:15:38.522Z,14.98
2019-02-26T00:18:11.359Z,18.27
2019-02-26T00:20:39.669Z,16.60
2019-02-26T00:23:08.464Z,18.60
2019-02-26T00:25:37.264Z,12.98
2019-02-26T00:28:06.026Z,14.63
2019-02-26T00:30:37.413Z,15.13
2019-02-26T00:33:05.606Z,12.58
2019-02-26T00:35:34.368Z,11.80
2019-02-26T00:38:03.156Z,15.28
2019-02-26T00:40:32.712Z,18.50
2019-02-26T00:43:04.329Z,10.03
2019-02-26T00:45:34.123Z,12.95
2019-02-26T00:48:03.380Z,10.98
2019-02-26T00:50:34.493Z,16.65
2019-02-26T00:53:03.996Z,10.88
2019-02-26T00:55:34.834Z,11.22
2019-02-26T00:58:05.361Z,12.60
2019-02-26T01:00:35.457Z,15.63
2019-02-26T01:03:05.956Z,19.85
2019-02-26T01:05:36.327Z,11.00
2019-02-26T01:08:06.145Z,11.48
2019-02-26T01:10:37.559Z,11.43
2019-02-26T01:13:07.262Z,13.72
2019-02-26T01:15:36.206Z,18.55
2019-02-26T01:18:05.597Z,14.80
2019-02-26T01:20:34.551Z,12.45
2019-02-26T01:23:03.424Z,16.80
2019-02-26T01:25:32.166Z,13.85
2019-02-26T01:28:00.955Z,13.08
2019-02-26T01:30:33.214Z,8.53
2019-02-26T01:33:02.508Z,12.55
2019-02-26T01:35:32.932Z,6.97
2019-02-26T01:38:03.148Z,11.03
2019-02-26T01:40:33.091Z,11.20
2019-02-26T01:43:03.157Z,7.58
2019-02-26T01:45:32.460Z,13.83
2019-02-26T01:48:01.342Z,11.25
2019-02-26T01:50:30.939Z,13.32
2019-02-26T01:53:01.058Z,15.43
2019-02-26T01:55:29.945Z,11.70
2019-02-26T01:57:59.271Z,12.85
2019-02-26T02:00:28.221Z,8.23
2019-02-26T02:02:57.026Z,11.20
2019-02-26T02:05:28.586Z,15.30
2019-02-26T02:07:56.258Z,10.75
2019-02-26T02:10:25.007Z,12.35
2019-02-26T02:12:57.405Z,12.82
2019-02-26T02:15:24.319Z,12.25
2019-02-26T02:17:54.872Z,14.33
2019-02-26T02:20:23.473Z,11.30
2019-02-26T02:22:52.339Z,13.60
2019-02-26T02:25:21.215Z,13.18
2019-02-26T02:27:51.982Z,12.63
2019-02-26T02:30:26.701Z,11.38
2019-02-26T02:32:54.366Z,9.65
2019-02-26T02:35:21.547Z,13.83
2019-02-26T02:37:53.321Z,10.53
2019-02-26T02:40:20.972Z,15.30
2019-02-26T02:42:49.783Z,5.42
2019-02-26T02:45:20.931Z,10.18
2019-02-26T02:47:54.810Z,8.48
2019-02-26T02:50:19.464Z,9.58
2019-02-26T02:52:50.564Z,9.90
2019-02-26T02:55:19.439Z,11.03
2019-02-26T02:57:50.208Z,9.73
2019-02-26T03:00:20.648Z,7.70
2019-02-26T03:02:50.020Z,10.85
2019-02-26T03:05:19.566Z,10.32
2019-02-26T03:07:51.033Z,11.70
2019-02-26T03:10:18.998Z,8.68
2019-02-26T03:12:52.168Z,11.88
2019-02-26T03:15:18.298Z,9.35
2019-02-26T03:17:47.037Z,10.63
2019-02-26T03:20:15.955Z,6.83
2019-02-26T03:22:46.678Z,8.85
2019-02-26T03:25:17.483Z,8.23
2019-02-26T03:27:46.926Z,16.42
2019-02-26T03:30:31.913Z,9.60
2019-02-26T03:32:58.436Z,6.90
2019-02-26T03:35:23.912Z,11.63
2019-02-26T03:37:55.519Z,10.30
2019-02-26T03:40:24.880Z,7.78
2019-02-26T03:42:53.812Z,11.50
2019-02-26T03:45:24.888Z,11.00
2019-02-26T03:47:55.463Z,9.80
2019-02-26T03:50:26.299Z,10.80
2019-02-26T03:52:54.109Z,8.90
2019-02-26T03:55:22.978Z,9.28
2019-02-26T03:57:54.418Z,12.55
2019-02-26T04:00:22.292Z,10.90
2019-02-26T04:02:51.881Z,10.28
2019-02-26T04:05:20.856Z,6.87
2019-02-26T04:07:52.457Z,7.90
2019-02-26T04:10:20.121Z,9.90
2019-02-26T04:12:51.980Z,8.10
2019-02-26T04:15:19.947Z,11.10
2019-02-26T04:17:48.731Z,9.75
2019-02-26T04:20:17.591Z,8.00
2019-02-26T04:22:49.900Z,8.18
2019-02-26T04:25:27.002Z,15.65
2019-02-26T04:28:12.364Z,9.93
2019-02-26T04:30:58.406Z,10.05
2019-02-26T04:33:49.654Z,12.10
2019-02-26T04:36:27.230Z,6.75
2019-02-26T04:39:16.497Z,9.45
2019-02-26T04:41:53.402Z,10.82
2019-02-26T04:44:26.831Z,6.92
2019-02-26T04:46:57.174Z,9.95
2019-02-26T04:49:28.119Z,8.20
2019-02-26T04:51:56.784Z,9.15
2019-02-26T04:54:27.153Z,5.90
2019-02-26T04:56:56.482Z,7.03
2019-02-26T04:59:25.393Z,12.28
2019-02-26T05:01:55.002Z,7.65
2019-02-26T05:04:24.586Z,8.38
2019-02-26T05:06:53.406Z,9.30
2019-02-26T05:09:24.541Z,12.07
2019-02-26T05:11:52.635Z,7.53
2019-02-26T05:14:23.599Z,12.13
2019-02-26T05:16:51.879Z,10.43
2019-02-26T05:19:21.744Z,13.80
2019-02-26T05:21:53.308Z,13.48
2019-02-26T05:24:23.803Z,14.28
2019-02-26T05:26:52.102Z,9.63
2019-02-26T05:29:20.939Z,14.53
2019-02-26T05:31:49.705Z,10.03
2019-02-26T05:34:20.744Z,19.42
2019-02-26T05:36:48.922Z,10.40
2019-02-26T05:39:20.932Z,16.35
2019-02-26T05:41:52.330Z,11.50
2019-02-26T05:44:18.680Z,12.65
2019-02-26T05:46:50.006Z,12.43
2019-02-26T05:49:19.484Z,12.07
2019-02-26T05:51:48.553Z,11.60
2019-02-26T05:54:18.533Z,15.10
2019-02-26T05:56:49.863Z,15.93
2019-02-26T05:59:21.444Z,9.73
2019-02-26T06:01:50.253Z,14.60
2019-02-26T06:04:20.596Z,11.03
2019-02-26T06:06:51.073Z,14.68
2019-02-26T06:09:22.529Z,14.63
2019-02-26T06:11:50.649Z,19.85
2019-02-26T06:14:19.447Z,14.38
2019-02-26T06:16:48.841Z,11.22
2019-02-26T06:19:20.325Z,12.53
2019-02-26T06:21:49.789Z,19.62
2019-02-26T06:24:22.426Z,18.70
2019-02-26T06:26:49.992Z,16.55
2019-02-26T06:29:22.277Z,13.50
2019-02-26T06:31:49.417Z,10.65
2019-02-26T06:34:21.432Z,11.60
2019-02-26T06:36:49.293Z,19.62
2019-02-26T06:39:22.247Z,13.85
2019-02-26T06:41:51.293Z,15.83
2019-02-26T06:44:20.238Z,18.95
2019-02-26T06:46:49.107Z,21.00
2019-02-26T06:49:20.159Z,19.70
2019-02-26T06:51:49.814Z,29.10
2019-02-26T06:54:19.654Z,23.83
2019-02-26T06:56:50.772Z,22.82
2019-02-26T06:59:22.567Z,18.62
2019-02-26T07:01:55.453Z,19.00
2019-02-26T07:04:21.882Z,16.25
2019-02-26T07:06:50.683Z,18.87
2019-02-26T07:09:20.487Z,17.12
2019-02-26T07:11:49.389Z,17.92
2019-02-26T07:14:18.216Z,15.98
2019-02-26T07:16:47.006Z,21.48
2019-02-26T07:19:16.720Z,19.57
2019-02-26T07:21:47.921Z,22.77
2019-02-26T07:24:18.097Z,16.10
2019-02-26T07:26:48.311Z,18.77
2019-02-26T07:29:17.655Z,18.60
2019-02-26T07:31:47.305Z,16.50
2019-02-26T07:34:18.268Z,14.90
2019-02-26T07:36:47.962Z,15.30
2019-02-26T07:39:20.106Z,15.18
2019-02-26T07:41:49.306Z,17.67
2019-02-26T07:44:20.886Z,21.80
2019-02-26T07:46:49.217Z,11.75
2019-02-26T07:49:19.901Z,19.80
2019-02-26T07:51:48.879Z,23.55
2019-02-26T07:54:17.641Z,15.85
2019-02-26T07:56:46.443Z,15.03
2019-02-26T07:59:15.262Z,17.75
2019-02-26T08:01:45.252Z,15.55
2019-02-26T08:04:17.944Z,16.52
2019-02-26T08:06:44.963Z,16.48
2019-02-26T08:09:14.733Z,15.63
2019-02-26T08:11:46.355Z,23.30
2019-02-26T08:14:16.194Z,23.38
2019-02-26T08:16:49.252Z,25.00
2019-02-26T08:19:15.868Z,25.25
2019-02-26T08:21:45.572Z,19.37
2019-02-26T08:24:17.009Z,14.65
2019-02-26T08:26:47.430Z,17.40
2019-02-26T08:29:16.081Z,16.55
2019-02-26T08:31:47.061Z,13.05
2019-02-26T08:34:15.849Z,15.20
2019-02-26T08:36:46.762Z,17.52
2019-02-26T08:39:15.895Z,13.68
2019-02-26T08:42:02.545Z,12.15
2019-02-26T08:44:31.349Z,15.03
2019-02-26T08:47:00.106Z,14.85
2019-02-26T08:49:28.885Z,15.75
2019-02-26T08:51:57.995Z,16.00
2019-02-26T08:54:30.247Z,17.07
2019-02-26T08:56:57.264Z,14.63
2019-02-26T08:59:26.058Z,16.48
2019-02-26T09:01:54.917Z,12.13
2019-02-26T09:04:23.959Z,11.33
2019-02-26T09:06:54.600Z,11.93
2019-02-26T09:09:25.342Z,12.05
2019-02-26T09:11:55.922Z,10.68
2019-02-26T09:14:24.235Z,15.23
2019-02-26T09:16:54.940Z,13.22
2019-02-26T09:19:25.294Z,11.85
2019-02-26T09:21:54.761Z,10.70
2019-02-26T09:24:23.662Z,9.20
2019-02-26T09:26:54.713Z,9.98
2019-02-26T09:29:22.965Z,15.85
2019-02-26T09:31:51.745Z,13.25
2019-02-26T09:34:20.596Z,11.70
2019-02-26T09:36:52.727Z,18.32
2019-02-26T09:39:19.765Z,17.12
2019-02-26T09:41:48.619Z,17.92
2019-02-26T09:44:17.385Z,16.50
2019-02-26T09:46:46.587Z,12.95
2019-02-26T09:49:17.241Z,13.08
2019-02-26T09:51:45.996Z,9.30
2019-02-26T09:54:15.987Z,14.53
2019-02-26T09:56:45.432Z,8.90
2019-02-26T09:59:14.764Z,10.55
2019-02-26T10:01:43.685Z,13.90
2019-02-26T10:04:12.475Z,11.25
2019-02-26T10:06:42.610Z,8.38
2019-02-26T10:09:14.014Z,12.98
2019-02-26T10:11:44.339Z,9.13
2019-02-26T10:14:13.150Z,9.55
2019-02-26T10:16:44.554Z,9.00
2019-02-26T10:19:14.943Z,14.03
2019-02-26T10:21:44.905Z,12.40
2019-02-26T10:24:13.823Z,14.75
2019-02-26T10:26:43.335Z,9.63
2019-02-26T10:29:12.225Z,9.98
2019-02-26T10:31:41.253Z,12.18
2019-02-26T10:34:12.594Z,10.80
2019-02-26T10:36:43.416Z,10.72
2019-02-26T10:39:10.991Z,14.70
2019-02-26T10:41:41.757Z,8.50
2019-02-26T10:44:10.362Z,9.50
2019-02-26T10:46:41.427Z,11.05
2019-02-26T10:49:09.638Z,14.78
2019-02-26T10:51:42.411Z,12.03
2019-02-26T10:54:12.314Z,14.80
2019-02-26T10:56:42.059Z,20.82
2019-02-26T10:59:12.586Z,16.00
2019-02-26T11:01:40.824Z,24.43
2019-02-26T11:04:09.642Z,26.90
2019-02-26T11:06:39.715Z,29.90
2019-02-26T11:09:14.419Z,33.80
2019-02-26T11:11:42.385Z,26.53
2019-02-26T11:14:13.584Z,33.13
2019-02-26T11:16:41.704Z,39.75
2019-02-26T11:19:12.294Z,36.45
2019-02-26T11:21:41.032Z,30.43
2019-02-26T11:24:11.248Z,29.23
2019-02-26T11:26:40.907Z,25.57
2019-02-26T11:29:10.735Z,25.02
2019-02-26T11:31:41.736Z,24.77
2019-02-26T11:34:12.941Z,16.25
2019-02-26T11:36:41.016Z,25.48
2019-02-26T11:39:12.089Z,22.37
2019-02-26T11:41:40.762Z,27.85
2019-02-26T11:44:12.498Z,18.50
2019-02-26T11:46:39.956Z,17.82
2019-02-26T11:49:09.475Z,19.32
2019-02-26T11:51:41.854Z,14.33
2019-02-26T11:54:12.433Z,18.73
2019-02-26T11:56:44.012Z,17.37
2019-02-26T11:59:14.338Z,13.90
2019-02-26T12:01:42.348Z,21.55
2019-02-26T12:04:13.969Z,15.35
2019-02-26T12:06:41.564Z,17.07
2019-02-26T12:09:11.415Z,17.60
2019-02-26T12:11:40.906Z,14.73
2019-02-26T12:14:10.958Z,14.20
2019-02-26T12:16:40.098Z,21.62
2019-02-26T12:19:10.813Z,14.20
2019-02-26T12:21:39.335Z,16.80
2019-02-26T12:24:09.114Z,14.28
2019-02-26T12:26:38.561Z,17.70
2019-02-26T12:29:07.327Z,12.45
2019-02-26T12:31:38.715Z,16.27
2019-02-26T12:34:08.400Z,11.88
2019-02-26T12:36:36.998Z,11.95
2019-02-26T12:39:08.119Z,9.83
2019-02-26T12:41:41.186Z,14.05
2019-02-26T12:44:10.859Z,12.70
2019-02-26T12:46:38.089Z,10.45
2019-02-26T12:49:09.415Z,15.72
2019-02-26T12:51:37.461Z,10.60
2019-02-26T12:54:08.916Z,13.48
2019-02-26T12:56:37.473Z,11.35
2019-02-26T12:59:07.078Z,9.00
2019-02-26T13:01:39.513Z,12.93
2019-02-26T13:04:09.458Z,10.93
2019-02-26T13:06:41.001Z,8.53
2019-02-26T13:09:08.621Z,10.00
2019-02-26T13:11:37.477Z,10.10
2019-02-26T13:14:06.277Z,10.40
2019-02-26T13:16:35.075Z,11.05
2019-02-26T13:19:04.741Z,8.18
2019-02-26T13:21:33.795Z,12.75
2019-02-26T13:24:11.353Z,16.32
2019-02-26T13:26:36.356Z,9.80
2019-02-26T13:29:03.698Z,11.18
2019-02-26T13:31:35.875Z,11.73
2019-02-26T13:34:03.003Z,15.60
2019-02-26T13:36:35.117Z,8.85
2019-02-26T13:39:02.265Z,9.18
2019-02-26T13:41:38.358Z,9.95
2019-02-26T13:44:01.601Z,12.05
2019-02-26T13:46:30.496Z,15.53
2019-02-26T13:48:59.317Z,14.60
2019-02-26T13:51:28.084Z,10.38
2019-02-26T13:53:56.874Z,11.12
2019-02-26T13:56:25.657Z,12.47
2019-02-26T13:58:54.434Z,8.55
2019-02-26T14:01:23.244Z,10.15
2019-02-26T14:03:52.212Z,7.50
2019-02-26T14:06:21.087Z,10.25
2019-02-26T14:08:49.856Z,10.88
2019-02-26T14:11:18.720Z,11.48
2019-02-26T14:13:47.492Z,9.58
2019-02-26T14:16:16.239Z,10.38
2019-02-26T14:18:45.140Z,11.48
2019-02-26T14:21:14.373Z,9.18
2019-02-26T14:23:43.138Z,9.15
2019-02-26T14:26:11.988Z,11.30
2019-02-26T14:28:40.730Z,9.90
2019-02-26T14:31:09.509Z,11.75
2019-02-26T14:33:38.445Z,14.60
2019-02-26T14:36:07.185Z,11.12
2019-02-26T14:38:35.937Z,9.98
2019-02-26T14:41:04.763Z,12.60
2019-02-26T14:43:33.529Z,13.95
2019-02-26T14:46:02.343Z,10.32
2019-02-26T14:48:31.125Z,16.65
2019-02-26T14:50:59.972Z,13.55
2019-02-26T14:53:28.813Z,14.93
2019-02-26T14:55:57.688Z,21.93
2019-02-26T14:58:26.496Z,25.60
2019-02-26T15:00:58.205Z,29.10
2019-02-26T15:03:25.760Z,36.33
2019-02-26T15:05:54.572Z,51.25
2019-02-26T15:08:23.661Z,50.95
2019-02-26T15:10:52.434Z,47.83
2019-02-26T15:13:21.256Z,48.02
2019-02-26T15:15:50.095Z,36.68
2019-02-26T15:18:18.933Z,41.45
2019-02-26T15:20:48.031Z,36.63
2019-02-26T15:23:16.791Z,41.75
2019-02-26T15:25:45.627Z,45.35
2019-02-26T15:28:14.351Z,43.87
2019-02-26T15:30:43.202Z,43.42
2019-02-26T15:33:12.257Z,48.23
2019-02-26T15:35:41.147Z,48.92
2019-02-26T15:38:09.848Z,41.30
2019-02-26T15:40:38.666Z,33.70
2019-02-26T15:43:07.439Z,27.25
2019-02-26T15:45:36.426Z,16.55
2019-02-26T15:48:05.367Z,13.98
2019-02-26T15:50:34.138Z,18.82
2019-02-26T15:53:02.914Z,20.00
2019-02-26T15:55:33.230Z,16.30
2019-02-26T15:58:04.383Z,14.47
2019-02-26T16:00:32.520Z,21.93
2019-02-26T16:03:01.350Z,19.48
2019-02-26T16:05:38.319Z,18.35
2019-02-26T16:08:07.491Z,13.72
2019-02-26T16:10:36.264Z,19.92
2019-02-26T16:13:05.145Z,16.27
2019-02-26T16:15:35.563Z,15.78
2019-02-26T16:18:04.336Z,21.82
2019-02-26T16:20:33.163Z,17.40
2019-02-26T16:23:01.970Z,17.35
2019-02-26T16:25:30.743Z,16.73
2019-02-26T16:27:59.511Z,16.35
2019-02-26T16:30:29.348Z,20.05
2019-02-26T16:32:58.233Z,13.15
2019-02-26T16:35:27.023Z,16.40
2019-02-26T16:37:55.829Z,20.97
2019-02-26T16:40:24.594Z,18.07
2019-02-26T16:42:53.332Z,16.60
2019-02-26T16:45:26.456Z,19.82
2019-02-26T16:47:57.181Z,13.48
2019-02-26T16:50:27.902Z,17.75
2019-02-26T16:52:57.980Z,20.32
2019-02-26T16:55:27.189Z,22.35
2019-02-26T16:57:56.046Z,20.80
2019-02-26T17:00:29.860Z,18.70
2019-02-26T17:03:00.803Z,19.00
2019-02-26T17:05:29.193Z,16.93
2019-02-26T17:07:58.421Z,23.73
2019-02-26T17:10:30.205Z,18.05
2019-02-26T17:13:01.739Z,13.90
2019-02-26T17:15:31.469Z,16.60
2019-02-26T17:18:00.276Z,17.57
2019-02-26T17:20:29.990Z,15.93
2019-02-26T17:22:58.778Z,17.62
2019-02-26T17:25:28.856Z,15.35
2019-02-26T17:27:57.965Z,17.25
2019-02-26T17:30:26.811Z,17.05
2019-02-26T17:32:55.861Z,11.30
2019-02-26T17:35:28.723Z,19.40
2019-02-26T17:37:55.093Z,16.15
2019-02-26T17:40:25.277Z,17.67
2019-02-26T17:42:54.427Z,16.50
2019-02-26T17:45:28.386Z,12.03
2019-02-26T17:47:57.515Z,14.95
2019-02-26T17:50:37.345Z,14.83
2019-02-26T17:53:06.223Z,16.55
2019-02-26T17:55:35.090Z,13.08
2019-02-26T17:58:03.864Z,17.75
2019-02-26T18:00:34.294Z,13.38
2019-02-26T18:03:06.419Z,17.42
2019-02-26T18:05:33.573Z,15.63
2019-02-26T18:08:02.317Z,10.63
2019-02-26T18:10:31.139Z,11.15
2019-02-26T18:13:00.292Z,10.03
2019-02-26T18:15:29.171Z,12.33
2019-02-26T18:17:58.414Z,8.80
2019-02-26T18:20:28.703Z,11.48
2019-02-26T18:22:59.849Z,9.13
2019-02-26T18:25:28.018Z,10.03
2019-02-26T18:27:56.829Z,9.33
2019-02-26T18:30:29.515Z,10.35
2019-02-26T18:32:58.997Z,10.00
2019-02-26T18:35:28.154Z,10.80
2019-02-26T18:37:57.048Z,11.48
2019-02-26T18:40:28.186Z,9.68
2019-02-26T18:42:56.276Z,7.12
2019-02-26T18:45:32.469Z,10.45
2019-02-26T18:48:01.270Z,11.20
2019-02-26T18:50:30.143Z,10.72
2019-02-26T18:52:58.957Z,11.08
2019-02-26T18:55:29.377Z,11.83
2019-02-26T18:57:58.335Z,9.65
2019-02-26T19:00:31.240Z,10.72
2019-02-26T19:03:00.089Z,10.20
2019-02-26T19:05:28.863Z,7.60
2019-02-26T19:07:57.660Z,9.00
2019-02-26T19:10:26.447Z,7.97
2019-02-26T19:12:55.197Z,12.33
2019-02-26T19:15:28.951Z,10.93
2019-02-26T19:18:02.291Z,9.75
2019-02-26T19:20:32.895Z,11.00
2019-02-26T19:23:02.212Z,10.58
2019-02-26T19:25:31.002Z,7.62
2019-02-26T19:27:59.742Z,8.95
2019-02-26T19:30:28.598Z,11.85
2019-02-26T19:32:57.376Z,10.68
2019-02-26T19:35:26.208Z,9.18
2019-02-26T19:37:57.747Z,7.08
2019-02-26T19:40:38.745Z,12.53
2019-02-26T19:43:05.757Z,7.87
2019-02-26T19:45:34.571Z,10.32
2019-02-26T19:48:03.406Z,9.85
2019-02-26T19:50:32.332Z,12.55
2019-02-26T19:53:02.532Z,10.18
2019-02-26T19:55:42.215Z,8.78
2019-02-26T19:58:10.989Z,8.90
2019-02-26T20:00:39.774Z,10.72
2019-02-26T20:03:08.642Z,10.72
2019-02-26T20:09:19.079Z,12.55
2019-02-26T20:11:47.859Z,14.85
2019-02-26T20:20:49.877Z,14.68
2019-02-26T20:23:18.615Z,10.88
2019-02-26T20:29:53.195Z,7.40
2019-02-26T20:32:21.930Z,8.40
2019-02-26T20:34:50.719Z,8.53
2019-02-26T20:37:22.009Z,10.65
2019-02-26T20:39:50.047Z,6.80
2019-02-26T20:42:18.856Z,9.78
2019-02-26T20:44:47.661Z,9.63
2019-02-26T20:47:16.480Z,11.25
2019-02-26T20:53:29.159Z,9.65
2019-02-26T20:55:58.242Z,11.83
2019-02-26T20:58:27.128Z,12.28
2019-02-26T21:00:58.624Z,9.25
2019-02-26T21:03:26.375Z,9.58
2019-02-26T21:05:55.143Z,9.03
2019-02-26T21:08:24.046Z,11.90
2019-02-26T21:10:52.844Z,6.20
2019-02-26T21:13:23.651Z,9.58
2019-02-26T21:15:52.093Z,6.10
2019-02-26T21:18:20.961Z,8.43
2019-02-26T21:20:49.735Z,8.50
2019-02-26T21:23:18.852Z,7.75
2019-02-26T21:25:47.637Z,9.98
2019-02-26T21:28:16.456Z,8.78
2019-02-26T21:30:45.913Z,9.73
2019-02-26T21:33:15.248Z,13.25
2019-02-26T21:35:44.033Z,10.43
2019-02-26T21:38:13.191Z,10.13
2019-02-26T21:40:42.063Z,8.00
2019-02-26T21:43:10.861Z,7.03
2019-02-26T21:45:39.728Z,9.70
2019-02-26T21:48:08.500Z,8.85
2019-02-26T21:50:37.411Z,7.62
2019-02-26T21:53:06.212Z,6.83
2019-02-26T21:55:43.949Z,6.90
2019-02-26T21:58:05.408Z,8.40
2019-02-26T22:00:36.682Z,10.23
2019-02-26T22:03:04.678Z,13.95
2019-02-26T22:05:37.422Z,12.95
2019-02-26T22:08:03.970Z,13.30
2019-02-26T22:10:33.367Z,12.95
2019-02-26T22:13:02.375Z,16.07
2019-02-26T22:15:31.235Z,10.72
2019-02-26T22:18:00.059Z,9.95
2019-02-26T22:20:36.297Z,10.95
2019-02-26T22:23:00.481Z,11.53
2019-02-26T22:25:30.129Z,14.55
2019-02-26T22:27:58.917Z,15.60
2019-02-26T22:30:27.810Z,15.00
2019-02-26T22:32:56.598Z,14.70
2019-02-26T22:35:26.345Z,17.45
2019-02-26T22:37:55.620Z,16.82
2019-02-26T22:40:28.896Z,16.85
2019-02-26T22:42:54.842Z,18.17
2019-02-26T22:45:27.646Z,22.32
2019-02-26T22:47:54.477Z,26.80
2019-02-26T22:50:24.876Z,25.60
2019-02-26T22:52:54.000Z,31.97
2019-02-26T22:55:22.862Z,27.07
2019-02-26T22:57:51.910Z,17.80
2019-02-26T23:00:55.993Z,17.00
2019-02-26T23:03:24.989Z,14.47
2019-02-26T23:05:53.982Z,17.37
2019-02-26T23:08:22.828Z,14.28
2019-02-26T23:10:57.022Z,11.73
2019-02-26T23:13:22.978Z,12.63
2019-02-26T23:15:52.130Z,12.98
2019-02-26T23:18:21.419Z,12.75
2019-02-26T23:20:50.318Z,10.72
2019-02-26T23:23:21.732Z,10.50
2019-02-26T23:25:49.839Z,11.93
2019-02-26T23:28:21.675Z,10.23
2019-02-26T23:30:49.483Z,13.15
2019-02-26T23:33:18.377Z,17.67
2019-02-26T23:35:47.452Z,16.90
2019-02-26T23:38:16.374Z,12.75
2019-02-26T23:40:45.163Z,18.65
2019-02-26T23:43:14.064Z,14.73
2019-02-26T23:45:43.052Z,12.13
2019-02-26T23:48:11.804Z,14.10
2019-02-26T23:50:40.574Z,10.40
2019-02-26T23:53:09.358Z,8.10
2019-02-26T23:55:38.137Z,12.58
2019-02-26T23:58:06.912Z,18.73
